sensor_id;sensor_type;location;lat;lon;timestamp;P1;durP1;ratioP1;P2;durP2;ratioP2
325;SDS011;150;52.352;14.058;2022-07-03T00:01:16;5.70;;;4.70;;
325;SDS011;150;52.352;14.058;2022-07-03T00:03:43;5.47;;;5.18;;
325;SDS011;150;52.352;14.058;2022-07-03T00:06:10;17.50;;;16.42;;
325;SDS011;150;52.352;14.058;2022-07-03T00:08:37;6.53;;;6.13;;
325;SDS011;150;52.352;14.058;2022-07-03T00:11:05;8.07;;;7.65;;
325;SDS011;150;52.352;14.058;2022-07-03T00:13:33;7.00;;;5.00;;
325;SDS011;150;52.352;14.058;2022-07-03T00:16:00;5.65;;;5.05;;
325;SDS011;150;52.352;14.058;2022-07-03T00:18:26;10.25;;;9.75;;
325;SDS011;150;52.352;14.058;2022-07-03T00:20:55;7.03;;;5.97;;
325;SDS011;150;52.352;14.058;2022-07-03T00:23:27;5.93;;;5.10;;
325;SDS011;150;52.352;14.058;2022-07-03T00:25:55;11.23;;;9.97;;
325;SDS011;150;52.352;14.058;2022-07-03T00:28:28;14.18;;;11.60;;
325;SDS011;150;52.352;14.058;2022-07-03T00:30:57;5.50;;;5.20;;
325;SDS011;150;52.352;14.058;2022-07-03T00:33:26;5.82;;;5.40;;
325;SDS011;150;52.352;14.058;2022-07-03T00:35:56;6.47;;;4.15;;
325;SDS011;150;52.352;14.058;2022-07-03T00:38:23;4.40;;;4.10;;
325;SDS011;150;52.352;14.058;2022-07-03T00:40:50;4.55;;;3.92;;
325;SDS011;150;52.352;14.058;2022-07-03T00:43:17;4.00;;;3.80;;
325;SDS011;150;52.352;14.058;2022-07-03T00:45:47;5.25;;;3.97;;
325;SDS011;150;52.352;14.058;2022-07-03T00:48:15;4.50;;;3.92;;
325;SDS011;150;52.352;14.058;2022-07-03T00:50:44;3.78;;;3.60;;
325;SDS011;150;52.352;14.058;2022-07-03T00:53:12;4.38;;;3.90;;
325;SDS011;150;52.352;14.058;2022-07-03T00:55:39;5.38;;;3.83;;
325;SDS011;150;52.352;14.058;2022-07-03T00:58:10;4.80;;;4.40;;
325;SDS011;150;52.352;14.058;2022-07-03T01:00:39;4.10;;;3.70;;
325;SDS011;150;52.352;14.058;2022-07-03T01:03:09;3.97;;;3.80;;
325;SDS011;150;52.352;14.058;2022-07-03T01:05:42;5.47;;;3.80;;
325;SDS011;150;52.352;14.058;2022-07-03T01:08:11;3.83;;;3.63;;
325;SDS011;150;52.352;14.058;2022-07-03T01:10:47;4.47;;;3.80;;
325;SDS011;150;52.352;14.058;2022-07-03T01:13:24;5.78;;;4.18;;
325;SDS011;150;52.352;14.058;2022-07-03T01:15:58;4.60;;;4.30;;
325;SDS011;150;52.352;14.058;2022-07-03T01:18:35;4.25;;;3.90;;
325;SDS011;150;52.352;14.058;2022-07-03T01:21:10;6.70;;;5.30;;
325;SDS011;150;52.352;14.058;2022-07-03T01:23:55;14.18;;;12.05;;
325;SDS011;150;52.352;14.058;2022-07-03T01:26:34;7.17;;;6.10;;
325;SDS011;150;52.352;14.058;2022-07-03T01:29:08;9.17;;;8.60;;
325;SDS011;150;52.352;14.058;2022-07-03T01:31:39;6.43;;;4.95;;
325;SDS011;150;52.352;14.058;2022-07-03T01:34:08;4.47;;;3.90;;
325;SDS011;150;52.352;14.058;2022-07-03T01:36:40;11.55;;;9.15;;
325;SDS011;150;52.352;14.058;2022-07-03T01:39:08;5.65;;;4.65;;
325;SDS011;150;52.352;14.058;2022-07-03T01:41:38;7.43;;;4.57;;
325;SDS011;150;52.352;14.058;2022-07-03T01:44:05;5.70;;;4.38;;
325;SDS011;150;52.352;14.058;2022-07-03T01:46:32;5.13;;;4.60;;
325;SDS011;150;52.352;14.058;2022-07-03T01:48:59;4.45;;;4.20;;
325;SDS011;150;52.352;14.058;2022-07-03T01:51:26;4.90;;;4.60;;
325;SDS011;150;52.352;14.058;2022-07-03T01:53:54;7.03;;;5.30;;
325;SDS011;150;52.352;14.058;2022-07-03T01:56:23;5.07;;;4.45;;
325;SDS011;150;52.352;14.058;2022-07-03T01:58:53;5.68;;;5.00;;
325;SDS011;150;52.352;14.058;2022-07-03T02:01:20;5.15;;;4.30;;
325;SDS011;150;52.352;14.058;2022-07-03T02:03:50;5.15;;;4.32;;
325;SDS011;150;52.352;14.058;2022-07-03T02:06:28;5.90;;;5.20;;
325;SDS011;150;52.352;14.058;2022-07-03T02:09:03;5.80;;;4.68;;
325;SDS011;150;52.352;14.058;2022-07-03T02:11:32;7.78;;;4.78;;
325;SDS011;150;52.352;14.058;2022-07-03T02:14:05;4.97;;;4.60;;
325;SDS011;150;52.352;14.058;2022-07-03T02:16:40;6.20;;;4.90;;
325;SDS011;150;52.352;14.058;2022-07-03T02:19:15;6.57;;;5.70;;
325;SDS011;150;52.352;14.058;2022-07-03T02:21:46;8.80;;;5.40;;
325;SDS011;150;52.352;14.058;2022-07-03T02:24:17;7.00;;;5.70;;
325;SDS011;150;52.352;14.058;2022-07-03T02:26:48;6.78;;;6.40;;
325;SDS011;150;52.352;14.058;2022-07-03T02:29:23;6.83;;;5.40;;
325;SDS011;150;52.352;14.058;2022-07-03T02:31:57;6.70;;;5.43;;
325;SDS011;150;52.352;14.058;2022-07-03T02:34:27;6.22;;;5.63;;
325;SDS011;150;52.352;14.058;2022-07-03T02:36:55;6.32;;;5.60;;
325;SDS011;150;52.352;14.058;2022-07-03T02:39:26;5.05;;;4.75;;
325;SDS011;150;52.352;14.058;2022-07-03T02:41:58;6.50;;;5.50;;
325;SDS011;150;52.352;14.058;2022-07-03T02:44:30;5.63;;;5.32;;
325;SDS011;150;52.352;14.058;2022-07-03T02:47:07;5.20;;;4.90;;
325;SDS011;150;52.352;14.058;2022-07-03T02:49:44;5.53;;;4.90;;
325;SDS011;150;52.352;14.058;2022-07-03T02:52:24;5.25;;;4.95;;
325;SDS011;150;52.352;14.058;2022-07-03T02:54:57;5.15;;;4.90;;
325;SDS011;150;52.352;14.058;2022-07-03T02:57:29;4.73;;;4.47;;
325;SDS011;150;52.352;14.058;2022-07-03T03:00:06;5.70;;;5.30;;
325;SDS011;150;52.352;14.058;2022-07-03T03:05:30;5.00;;;4.75;;
325;SDS011;150;52.352;14.058;2022-07-03T03:10:45;6.40;;;5.70;;
325;SDS011;150;52.352;14.058;2022-07-03T03:13:14;8.50;;;5.18;;
325;SDS011;150;52.352;14.058;2022-07-03T03:15:47;6.40;;;5.10;;
325;SDS011;150;52.352;14.058;2022-07-03T03:18:22;6.17;;;5.50;;
325;SDS011;150;52.352;14.058;2022-07-03T03:20:52;5.15;;;4.70;;
325;SDS011;150;52.352;14.058;2022-07-03T03:23:29;5.68;;;5.20;;
325;SDS011;150;52.352;14.058;2022-07-03T03:26:01;7.13;;;5.87;;
325;SDS011;150;52.352;14.058;2022-07-03T03:28:28;5.88;;;5.18;;
325;SDS011;150;52.352;14.058;2022-07-03T03:30:56;5.95;;;5.38;;
325;SDS011;150;52.352;14.058;2022-07-03T03:33:22;5.82;;;5.57;;
325;SDS011;150;52.352;14.058;2022-07-03T03:35:50;5.40;;;5.10;;
325;SDS011;150;52.352;14.058;2022-07-03T03:38:16;7.18;;;6.20;;
325;SDS011;150;52.352;14.058;2022-07-03T03:40:44;6.65;;;6.25;;
325;SDS011;150;52.352;14.058;2022-07-03T03:43:11;8.40;;;8.00;;
325;SDS011;150;52.352;14.058;2022-07-03T03:45:38;8.55;;;7.55;;
325;SDS011;150;52.352;14.058;2022-07-03T03:48:06;8.70;;;7.20;;
325;SDS011;150;52.352;14.058;2022-07-03T03:50:33;7.10;;;6.70;;
325;SDS011;150;52.352;14.058;2022-07-03T03:52:59;7.77;;;6.70;;
325;SDS011;150;52.352;14.058;2022-07-03T03:55:27;9.52;;;5.93;;
325;SDS011;150;52.352;14.058;2022-07-03T03:57:53;5.75;;;5.45;;
325;SDS011;150;52.352;14.058;2022-07-03T04:00:20;7.18;;;6.10;;
325;SDS011;150;52.352;14.058;2022-07-03T04:02:47;5.82;;;5.53;;
325;SDS011;150;52.352;14.058;2022-07-03T04:05:15;7.22;;;6.25;;
325;SDS011;150;52.352;14.058;2022-07-03T04:07:41;7.45;;;7.05;;
325;SDS011;150;52.352;14.058;2022-07-03T04:10:08;7.20;;;6.60;;
325;SDS011;150;52.352;14.058;2022-07-03T04:12:35;8.80;;;6.70;;
325;SDS011;150;52.352;14.058;2022-07-03T04:15:01;6.50;;;6.00;;
325;SDS011;150;52.352;14.058;2022-07-03T04:17:29;6.88;;;6.03;;
325;SDS011;150;52.352;14.058;2022-07-03T04:19:55;6.97;;;5.90;;
325;SDS011;150;52.352;14.058;2022-07-03T04:22:23;7.15;;;5.18;;
325;SDS011;150;52.352;14.058;2022-07-03T04:24:50;6.55;;;4.93;;
325;SDS011;150;52.352;14.058;2022-07-03T04:27:16;7.05;;;5.15;;
325;SDS011;150;52.352;14.058;2022-07-03T04:29:43;6.40;;;5.40;;
325;SDS011;150;52.352;14.058;2022-07-03T04:32:10;7.33;;;5.23;;
325;SDS011;150;52.352;14.058;2022-07-03T04:34:36;6.90;;;5.20;;
325;SDS011;150;52.352;14.058;2022-07-03T04:37:03;5.95;;;5.30;;
325;SDS011;150;52.352;14.058;2022-07-03T04:39:31;8.00;;;5.53;;
325;SDS011;150;52.352;14.058;2022-07-03T04:41:58;6.72;;;4.93;;
325;SDS011;150;52.352;14.058;2022-07-03T04:44:24;7.10;;;5.10;;
325;SDS011;150;52.352;14.058;2022-07-03T04:46:51;5.03;;;4.72;;
325;SDS011;150;52.352;14.058;2022-07-03T04:49:17;5.68;;;5.20;;
325;SDS011;150;52.352;14.058;2022-07-03T04:51:44;6.70;;;5.65;;
325;SDS011;150;52.352;14.058;2022-07-03T04:54:11;5.83;;;5.40;;
325;SDS011;150;52.352;14.058;2022-07-03T04:56:38;5.55;;;5.00;;
325;SDS011;150;52.352;14.058;2022-07-03T04:59:05;6.97;;;5.70;;
325;SDS011;150;52.352;14.058;2022-07-03T05:01:32;6.88;;;5.60;;
325;SDS011;150;52.352;14.058;2022-07-03T05:03:58;5.53;;;5.22;;
325;SDS011;150;52.352;14.058;2022-07-03T05:06:25;6.05;;;5.80;;
325;SDS011;150;52.352;14.058;2022-07-03T05:08:52;6.20;;;5.40;;
325;SDS011;150;52.352;14.058;2022-07-03T05:11:18;6.63;;;5.47;;
325;SDS011;150;52.352;14.058;2022-07-03T05:13:48;7.63;;;5.50;;
325;SDS011;150;52.352;14.058;2022-07-03T05:16:15;5.70;;;5.20;;
325;SDS011;150;52.352;14.058;2022-07-03T05:18:41;6.20;;;5.45;;
325;SDS011;150;52.352;14.058;2022-07-03T05:21:08;5.27;;;5.00;;
325;SDS011;150;52.352;14.058;2022-07-03T05:23:34;5.75;;;5.30;;
325;SDS011;150;52.352;14.058;2022-07-03T05:26:01;5.53;;;5.22;;
325;SDS011;150;52.352;14.058;2022-07-03T05:28:28;5.65;;;5.20;;
325;SDS011;150;52.352;14.058;2022-07-03T05:30:55;6.95;;;5.38;;
325;SDS011;150;52.352;14.058;2022-07-03T05:33:22;6.03;;;5.10;;
325;SDS011;150;52.352;14.058;2022-07-03T05:35:49;5.10;;;4.70;;
325;SDS011;150;52.352;14.058;2022-07-03T05:38:15;5.68;;;5.13;;
325;SDS011;150;52.352;14.058;2022-07-03T05:41:02;7.60;;;5.50;;
325;SDS011;150;52.352;14.058;2022-07-03T05:43:28;5.30;;;4.87;;
325;SDS011;150;52.352;14.058;2022-07-03T05:45:56;6.80;;;5.22;;
325;SDS011;150;52.352;14.058;2022-07-03T05:48:23;5.63;;;5.20;;
325;SDS011;150;52.352;14.058;2022-07-03T05:50:49;4.90;;;4.60;;
325;SDS011;150;52.352;14.058;2022-07-03T05:53:16;4.65;;;4.40;;
325;SDS011;150;52.352;14.058;2022-07-03T05:55:42;7.95;;;4.53;;
325;SDS011;150;52.352;14.058;2022-07-03T05:58:09;5.03;;;4.30;;
325;SDS011;150;52.352;14.058;2022-07-03T06:00:36;4.97;;;4.25;;
325;SDS011;150;52.352;14.058;2022-07-03T06:03:04;5.10;;;3.97;;
325;SDS011;150;52.352;14.058;2022-07-03T06:05:30;5.15;;;4.35;;
325;SDS011;150;52.352;14.058;2022-07-03T06:07:57;5.53;;;4.93;;
325;SDS011;150;52.352;14.058;2022-07-03T06:10:24;4.60;;;4.30;;
325;SDS011;150;52.352;14.058;2022-07-03T06:12:51;5.20;;;4.50;;
325;SDS011;150;52.352;14.058;2022-07-03T06:15:18;4.90;;;4.30;;
325;SDS011;150;52.352;14.058;2022-07-03T06:17:44;3.80;;;3.60;;
325;SDS011;150;52.352;14.058;2022-07-03T06:20:12;4.30;;;3.50;;
325;SDS011;150;52.352;14.058;2022-07-03T06:22:39;4.35;;;3.80;;
325;SDS011;150;52.352;14.058;2022-07-03T06:25:07;5.00;;;3.70;;
325;SDS011;150;52.352;14.058;2022-07-03T06:27:34;4.85;;;3.28;;
325;SDS011;150;52.352;14.058;2022-07-03T06:30:00;3.77;;;3.23;;
325;SDS011;150;52.352;14.058;2022-07-03T06:32:27;3.63;;;3.38;;
325;SDS011;150;52.352;14.058;2022-07-03T06:34:54;3.70;;;3.10;;
325;SDS011;150;52.352;14.058;2022-07-03T06:37:22;4.28;;;3.22;;
325;SDS011;150;52.352;14.058;2022-07-03T06:39:49;5.60;;;3.50;;
325;SDS011;150;52.352;14.058;2022-07-03T06:42:15;4.50;;;3.20;;
325;SDS011;150;52.352;14.058;2022-07-03T06:44:42;3.83;;;3.00;;
325;SDS011;150;52.352;14.058;2022-07-03T06:47:09;4.00;;;3.10;;
325;SDS011;150;52.352;14.058;2022-07-03T06:49:36;3.70;;;2.97;;
325;SDS011;150;52.352;14.058;2022-07-03T06:52:03;5.43;;;3.00;;
325;SDS011;150;52.352;14.058;2022-07-03T06:54:31;3.40;;;2.97;;
325;SDS011;150;52.352;14.058;2022-07-03T06:56:58;2.92;;;2.55;;
325;SDS011;150;52.352;14.058;2022-07-03T06:59:25;3.80;;;3.00;;
325;SDS011;150;52.352;14.058;2022-07-03T07:01:51;3.60;;;2.80;;
325;SDS011;150;52.352;14.058;2022-07-03T07:04:18;3.13;;;2.53;;
325;SDS011;150;52.352;14.058;2022-07-03T07:06:44;3.25;;;2.60;;
325;SDS011;150;52.352;14.058;2022-07-03T07:09:11;4.00;;;2.80;;
325;SDS011;150;52.352;14.058;2022-07-03T07:11:39;3.40;;;2.70;;
325;SDS011;150;52.352;14.058;2022-07-03T07:14:06;3.75;;;2.85;;
325;SDS011;150;52.352;14.058;2022-07-03T07:16:32;3.50;;;2.65;;
325;SDS011;150;52.352;14.058;2022-07-03T07:18:59;3.35;;;2.58;;
325;SDS011;150;52.352;14.058;2022-07-03T07:21:26;2.80;;;2.20;;
325;SDS011;150;52.352;14.058;2022-07-03T07:23:53;2.75;;;2.50;;
325;SDS011;150;52.352;14.058;2022-07-03T07:26:19;3.50;;;2.20;;
325;SDS011;150;52.352;14.058;2022-07-03T07:28:47;3.08;;;2.33;;
325;SDS011;150;52.352;14.058;2022-07-03T07:31:14;3.20;;;2.30;;
325;SDS011;150;52.352;14.058;2022-07-03T07:33:41;3.33;;;2.20;;
325;SDS011;150;52.352;14.058;2022-07-03T07:36:07;5.88;;;3.75;;
325;SDS011;150;52.352;14.058;2022-07-03T07:38:34;2.80;;;1.90;;
325;SDS011;150;52.352;14.058;2022-07-03T07:41:00;3.83;;;2.20;;
325;SDS011;150;52.352;14.058;2022-07-03T07:43:27;2.38;;;1.90;;
325;SDS011;150;52.352;14.058;2022-07-03T07:45:55;2.70;;;1.90;;
325;SDS011;150;52.352;14.058;2022-07-03T07:48:22;2.97;;;1.95;;
325;SDS011;150;52.352;14.058;2022-07-03T07:50:48;3.55;;;2.05;;
325;SDS011;150;52.352;14.058;2022-07-03T07:53:15;4.53;;;2.50;;
325;SDS011;150;52.352;14.058;2022-07-03T07:55:42;2.83;;;2.10;;
325;SDS011;150;52.352;14.058;2022-07-03T07:58:08;2.30;;;1.60;;
325;SDS011;150;52.352;14.058;2022-07-03T08:00:35;3.05;;;2.22;;
325;SDS011;150;52.352;14.058;2022-07-03T08:03:23;3.78;;;1.98;;
325;SDS011;150;52.352;14.058;2022-07-03T08:06:07;2.08;;;1.92;;
325;SDS011;150;52.352;14.058;2022-07-03T08:08:35;4.03;;;2.80;;
325;SDS011;150;52.352;14.058;2022-07-03T08:11:01;2.80;;;2.10;;
325;SDS011;150;52.352;14.058;2022-07-03T08:13:28;4.50;;;1.90;;
325;SDS011;150;52.352;14.058;2022-07-03T08:15:55;2.80;;;2.17;;
325;SDS011;150;52.352;14.058;2022-07-03T08:18:21;2.40;;;1.85;;
325;SDS011;150;52.352;14.058;2022-07-03T08:20:49;3.00;;;1.90;;
325;SDS011;150;52.352;14.058;2022-07-03T08:23:16;3.30;;;1.98;;
325;SDS011;150;52.352;14.058;2022-07-03T08:25:43;3.00;;;2.23;;
325;SDS011;150;52.352;14.058;2022-07-03T08:28:09;3.42;;;2.50;;
325;SDS011;150;52.352;14.058;2022-07-03T08:30:36;3.60;;;3.10;;
325;SDS011;150;52.352;14.058;2022-07-03T08:33:03;3.53;;;2.35;;
325;SDS011;150;52.352;14.058;2022-07-03T08:35:31;4.82;;;3.10;;
325;SDS011;150;52.352;14.058;2022-07-03T08:37:57;3.20;;;2.50;;
325;SDS011;150;52.352;14.058;2022-07-03T08:40:24;2.30;;;1.92;;
325;SDS011;150;52.352;14.058;2022-07-03T08:42:52;3.90;;;2.40;;
325;SDS011;150;52.352;14.058;2022-07-03T08:45:20;4.20;;;2.80;;
325;SDS011;150;52.352;14.058;2022-07-03T08:47:48;3.58;;;2.30;;
325;SDS011;150;52.352;14.058;2022-07-03T08:50:16;2.90;;;2.30;;
325;SDS011;150;52.352;14.058;2022-07-03T08:52:45;2.67;;;2.10;;
325;SDS011;150;52.352;14.058;2022-07-03T08:55:13;2.72;;;2.15;;
325;SDS011;150;52.352;14.058;2022-07-03T08:57:43;3.28;;;2.10;;
325;SDS011;150;52.352;14.058;2022-07-03T09:00:12;7.10;;;5.00;;
325;SDS011;150;52.352;14.058;2022-07-03T09:02:41;3.05;;;2.60;;
325;SDS011;150;52.352;14.058;2022-07-03T09:05:10;2.30;;;1.75;;
325;SDS011;150;52.352;14.058;2022-07-03T09:07:38;5.47;;;4.32;;
325;SDS011;150;52.352;14.058;2022-07-03T09:10:09;6.63;;;6.07;;
325;SDS011;150;52.352;14.058;2022-07-03T09:12:36;2.28;;;1.88;;
325;SDS011;150;52.352;14.058;2022-07-03T09:15:04;3.70;;;2.10;;
325;SDS011;150;52.352;14.058;2022-07-03T09:17:32;2.42;;;1.90;;
325;SDS011;150;52.352;14.058;2022-07-03T09:20:00;4.50;;;3.47;;
325;SDS011;150;52.352;14.058;2022-07-03T09:22:30;4.40;;;3.53;;
325;SDS011;150;52.352;14.058;2022-07-03T09:25:02;3.45;;;2.25;;
325;SDS011;150;52.352;14.058;2022-07-03T09:27:32;5.00;;;4.10;;
325;SDS011;150;52.352;14.058;2022-07-03T09:30:00;2.60;;;2.00;;
325;SDS011;150;52.352;14.058;2022-07-03T09:32:32;3.63;;;2.45;;
325;SDS011;150;52.352;14.058;2022-07-03T09:35:09;2.60;;;2.30;;
325;SDS011;150;52.352;14.058;2022-07-03T09:37:40;3.05;;;2.78;;
325;SDS011;150;52.352;14.058;2022-07-03T09:40:13;6.72;;;3.80;;
325;SDS011;150;52.352;14.058;2022-07-03T09:42:41;2.47;;;2.00;;
325;SDS011;150;52.352;14.058;2022-07-03T09:45:23;3.20;;;2.40;;
325;SDS011;150;52.352;14.058;2022-07-03T09:47:50;3.00;;;2.50;;
325;SDS011;150;52.352;14.058;2022-07-03T09:50:16;2.85;;;2.00;;
325;SDS011;150;52.352;14.058;2022-07-03T09:52:43;2.80;;;1.90;;
325;SDS011;150;52.352;14.058;2022-07-03T09:55:12;3.30;;;2.10;;
325;SDS011;150;52.352;14.058;2022-07-03T09:57:43;3.60;;;2.50;;
325;SDS011;150;52.352;14.058;2022-07-03T10:00:12;3.92;;;2.60;;
325;SDS011;150;52.352;14.058;2022-07-03T10:02:50;2.40;;;1.90;;
325;SDS011;150;52.352;14.058;2022-07-03T10:05:23;3.47;;;2.10;;
325;SDS011;150;52.352;14.058;2022-07-03T10:07:51;2.20;;;1.80;;
325;SDS011;150;52.352;14.058;2022-07-03T10:10:19;3.33;;;2.00;;
325;SDS011;150;52.352;14.058;2022-07-03T10:12:49;3.20;;;1.88;;
325;SDS011;150;52.352;14.058;2022-07-03T10:15:17;3.40;;;2.72;;
325;SDS011;150;52.352;14.058;2022-07-03T10:17:46;4.67;;;2.00;;
325;SDS011;150;52.352;14.058;2022-07-03T10:20:15;4.03;;;3.83;;
325;SDS011;150;52.352;14.058;2022-07-03T10:22:49;6.68;;;5.90;;
325;SDS011;150;52.352;14.058;2022-07-03T10:25:16;3.10;;;2.00;;
325;SDS011;150;52.352;14.058;2022-07-03T10:27:43;2.90;;;2.00;;
325;SDS011;150;52.352;14.058;2022-07-03T10:30:13;2.40;;;1.80;;
325;SDS011;150;52.352;14.058;2022-07-03T10:32:41;3.10;;;1.90;;
325;SDS011;150;52.352;14.058;2022-07-03T10:35:10;3.22;;;2.17;;
325;SDS011;150;52.352;14.058;2022-07-03T10:37:41;4.30;;;2.38;;
325;SDS011;150;52.352;14.058;2022-07-03T10:40:18;3.60;;;2.70;;
325;SDS011;150;52.352;14.058;2022-07-03T10:43:09;4.43;;;2.77;;
325;SDS011;150;52.352;14.058;2022-07-03T10:46:11;5.70;;;2.95;;
325;SDS011;150;52.352;14.058;2022-07-03T10:48:52;3.38;;;2.05;;
325;SDS011;150;52.352;14.058;2022-07-03T10:51:23;3.70;;;2.40;;
325;SDS011;150;52.352;14.058;2022-07-03T10:53:50;4.68;;;3.08;;
325;SDS011;150;52.352;14.058;2022-07-03T11:02:24;3.60;;;2.10;;
325;SDS011;150;52.352;14.058;2022-07-03T11:05:09;3.70;;;2.40;;
325;SDS011;150;52.352;14.058;2022-07-03T11:07:43;4.00;;;1.90;;
325;SDS011;150;52.352;14.058;2022-07-03T11:10:31;3.63;;;2.08;;
325;SDS011;150;52.352;14.058;2022-07-03T11:13:02;2.55;;;1.80;;
325;SDS011;150;52.352;14.058;2022-07-03T11:15:30;2.20;;;1.60;;
325;SDS011;150;52.352;14.058;2022-07-03T11:18:08;2.50;;;1.95;;
325;SDS011;150;52.352;14.058;2022-07-03T11:20:36;2.20;;;1.73;;
325;SDS011;150;52.352;14.058;2022-07-03T11:23:23;2.50;;;1.90;;
325;SDS011;150;52.352;14.058;2022-07-03T11:25:55;4.05;;;2.08;;
325;SDS011;150;52.352;14.058;2022-07-03T11:31:17;4.60;;;3.63;;
325;SDS011;150;52.352;14.058;2022-07-03T11:33:48;3.60;;;3.20;;
325;SDS011;150;52.352;14.058;2022-07-03T11:36:25;4.20;;;3.05;;
325;SDS011;150;52.352;14.058;2022-07-03T11:39:03;3.80;;;2.33;;
325;SDS011;150;52.352;14.058;2022-07-03T11:41:41;3.00;;;1.70;;
325;SDS011;150;52.352;14.058;2022-07-03T11:44:13;3.30;;;2.00;;
325;SDS011;150;52.352;14.058;2022-07-03T11:46:49;6.25;;;5.55;;
325;SDS011;150;52.352;14.058;2022-07-03T11:49:19;4.97;;;4.68;;
325;SDS011;150;52.352;14.058;2022-07-03T11:51:54;2.58;;;1.90;;
325;SDS011;150;52.352;14.058;2022-07-03T11:54:24;3.90;;;1.98;;
325;SDS011;150;52.352;14.058;2022-07-03T11:56:51;3.00;;;2.20;;
325;SDS011;150;52.352;14.058;2022-07-03T11:59:18;3.40;;;1.85;;
325;SDS011;150;52.352;14.058;2022-07-03T12:01:45;5.55;;;4.43;;
325;SDS011;150;52.352;14.058;2022-07-03T12:04:13;3.23;;;2.33;;
325;SDS011;150;52.352;14.058;2022-07-03T12:06:43;3.30;;;2.30;;
325;SDS011;150;52.352;14.058;2022-07-03T12:09:18;4.20;;;3.88;;
325;SDS011;150;52.352;14.058;2022-07-03T12:11:53;2.55;;;1.95;;
325;SDS011;150;52.352;14.058;2022-07-03T12:14:34;2.30;;;1.80;;
325;SDS011;150;52.352;14.058;2022-07-03T12:17:05;4.47;;;1.80;;
325;SDS011;150;52.352;14.058;2022-07-03T12:19:33;2.75;;;2.30;;
325;SDS011;150;52.352;14.058;2022-07-03T12:22:01;2.72;;;2.10;;
325;SDS011;150;52.352;14.058;2022-07-03T12:24:29;4.00;;;2.30;;
325;SDS011;150;52.352;14.058;2022-07-03T12:26:55;2.88;;;1.80;;
325;SDS011;150;52.352;14.058;2022-07-03T12:29:22;2.70;;;2.13;;
325;SDS011;150;52.352;14.058;2022-07-03T12:31:49;2.65;;;2.30;;
325;SDS011;150;52.352;14.058;2022-07-03T12:34:17;2.72;;;2.08;;
325;SDS011;150;52.352;14.058;2022-07-03T12:36:54;4.15;;;3.15;;
325;SDS011;150;52.352;14.058;2022-07-03T12:39:23;4.13;;;2.90;;
325;SDS011;150;52.352;14.058;2022-07-03T12:41:50;3.70;;;2.40;;
325;SDS011;150;52.352;14.058;2022-07-03T12:44:16;3.00;;;2.00;;
325;SDS011;150;52.352;14.058;2022-07-03T12:46:45;2.80;;;2.17;;
325;SDS011;150;52.352;14.058;2022-07-03T12:49:13;3.77;;;2.40;;
325;SDS011;150;52.352;14.058;2022-07-03T12:51:40;2.90;;;2.33;;
325;SDS011;150;52.352;14.058;2022-07-03T12:54:09;2.22;;;1.95;;
325;SDS011;150;52.352;14.058;2022-07-03T12:56:39;2.60;;;1.80;;
325;SDS011;150;52.352;14.058;2022-07-03T12:59:06;2.90;;;2.00;;
325;SDS011;150;52.352;14.058;2022-07-03T13:01:41;3.72;;;2.15;;
325;SDS011;150;52.352;14.058;2022-07-03T13:04:08;2.40;;;1.92;;
325;SDS011;150;52.352;14.058;2022-07-03T13:06:39;3.50;;;1.80;;
325;SDS011;150;52.352;14.058;2022-07-03T13:09:06;2.45;;;1.88;;
325;SDS011;150;52.352;14.058;2022-07-03T13:11:37;3.00;;;2.15;;
325;SDS011;150;52.352;14.058;2022-07-03T13:14:10;2.72;;;2.38;;
325;SDS011;150;52.352;14.058;2022-07-03T13:16:38;2.70;;;2.50;;
325;SDS011;150;52.352;14.058;2022-07-03T13:19:10;2.78;;;2.00;;
325;SDS011;150;52.352;14.058;2022-07-03T13:21:38;10.80;;;7.00;;
325;SDS011;150;52.352;14.058;2022-07-03T13:24:05;3.33;;;2.40;;
325;SDS011;150;52.352;14.058;2022-07-03T13:26:33;4.38;;;2.00;;
325;SDS011;150;52.352;14.058;2022-07-03T13:29:01;2.77;;;2.23;;
325;SDS011;150;52.352;14.058;2022-07-03T13:31:28;3.55;;;3.35;;
325;SDS011;150;52.352;14.058;2022-07-03T13:33:55;2.60;;;1.80;;
325;SDS011;150;52.352;14.058;2022-07-03T13:36:23;2.90;;;2.20;;
325;SDS011;150;52.352;14.058;2022-07-03T13:38:50;2.20;;;1.83;;
325;SDS011;150;52.352;14.058;2022-07-03T13:41:17;2.60;;;1.75;;
325;SDS011;150;52.352;14.058;2022-07-03T13:43:46;2.70;;;2.03;;
325;SDS011;150;52.352;14.058;2022-07-03T13:46:14;3.47;;;2.20;;
325;SDS011;150;52.352;14.058;2022-07-03T13:48:41;3.00;;;2.30;;
325;SDS011;150;52.352;14.058;2022-07-03T13:51:08;2.55;;;2.10;;
325;SDS011;150;52.352;14.058;2022-07-03T13:53:34;2.70;;;2.42;;
325;SDS011;150;52.352;14.058;2022-07-03T13:56:02;2.40;;;2.10;;
325;SDS011;150;52.352;14.058;2022-07-03T13:58:29;2.78;;;1.77;;
325;SDS011;150;52.352;14.058;2022-07-03T14:00:55;2.30;;;1.87;;
325;SDS011;150;52.352;14.058;2022-07-03T14:03:23;2.50;;;2.05;;
325;SDS011;150;52.352;14.058;2022-07-03T14:05:50;2.70;;;1.90;;
325;SDS011;150;52.352;14.058;2022-07-03T14:08:17;3.97;;;3.80;;
325;SDS011;150;52.352;14.058;2022-07-03T14:10:44;2.35;;;2.00;;
325;SDS011;150;52.352;14.058;2022-07-03T14:13:11;2.40;;;2.20;;
325;SDS011;150;52.352;14.058;2022-07-03T14:15:37;5.28;;;3.15;;
325;SDS011;150;52.352;14.058;2022-07-03T14:18:04;3.95;;;3.25;;
325;SDS011;150;52.352;14.058;2022-07-03T14:20:32;3.00;;;2.30;;
325;SDS011;150;52.352;14.058;2022-07-03T14:23:00;4.30;;;2.40;;
325;SDS011;150;52.352;14.058;2022-07-03T14:25:26;7.40;;;2.53;;
325;SDS011;150;52.352;14.058;2022-07-03T14:27:53;2.60;;;2.10;;
325;SDS011;150;52.352;14.058;2022-07-03T14:30:43;3.00;;;2.10;;
325;SDS011;150;52.352;14.058;2022-07-03T14:33:28;2.38;;;2.00;;
325;SDS011;150;52.352;14.058;2022-07-03T14:35:56;2.40;;;1.90;;
325;SDS011;150;52.352;14.058;2022-07-03T14:38:23;4.38;;;2.25;;
325;SDS011;150;52.352;14.058;2022-07-03T14:40:49;2.00;;;1.70;;
325;SDS011;150;52.352;14.058;2022-07-03T14:43:17;3.35;;;2.00;;
325;SDS011;150;52.352;14.058;2022-07-03T14:45:43;2.87;;;2.63;;
325;SDS011;150;52.352;14.058;2022-07-03T14:48:10;2.40;;;2.28;;
325;SDS011;150;52.352;14.058;2022-07-03T14:50:36;3.30;;;2.50;;
325;SDS011;150;52.352;14.058;2022-07-03T14:53:05;2.30;;;1.90;;
325;SDS011;150;52.352;14.058;2022-07-03T14:55:35;4.43;;;2.30;;
325;SDS011;150;52.352;14.058;2022-07-03T14:58:04;2.90;;;2.50;;
325;SDS011;150;52.352;14.058;2022-07-03T15:00:31;4.53;;;3.97;;
325;SDS011;150;52.352;14.058;2022-07-03T15:03:03;12.35;;;9.82;;
325;SDS011;150;52.352;14.058;2022-07-03T15:05:32;3.30;;;2.23;;
325;SDS011;150;52.352;14.058;2022-07-03T15:08:03;2.75;;;2.25;;
325;SDS011;150;52.352;14.058;2022-07-03T15:10:38;3.40;;;2.00;;
325;SDS011;150;52.352;14.058;2022-07-03T15:13:05;2.70;;;1.90;;
325;SDS011;150;52.352;14.058;2022-07-03T15:15:32;2.30;;;1.90;;
325;SDS011;150;52.352;14.058;2022-07-03T15:18:00;2.20;;;2.00;;
325;SDS011;150;52.352;14.058;2022-07-03T15:20:30;2.65;;;2.22;;
325;SDS011;150;52.352;14.058;2022-07-03T15:22:58;3.53;;;3.10;;
325;SDS011;150;52.352;14.058;2022-07-03T15:25:28;2.70;;;2.15;;
325;SDS011;150;52.352;14.058;2022-07-03T15:27:56;2.80;;;2.20;;
325;SDS011;150;52.352;14.058;2022-07-03T15:30:23;2.20;;;1.90;;
325;SDS011;150;52.352;14.058;2022-07-03T15:32:51;2.60;;;2.30;;
325;SDS011;150;52.352;14.058;2022-07-03T15:35:18;3.10;;;2.10;;
325;SDS011;150;52.352;14.058;2022-07-03T15:37:49;4.07;;;2.15;;
325;SDS011;150;52.352;14.058;2022-07-03T15:40:31;3.90;;;2.88;;
325;SDS011;150;52.352;14.058;2022-07-03T15:43:06;3.00;;;2.40;;
325;SDS011;150;52.352;14.058;2022-07-03T15:45:49;3.75;;;3.15;;
325;SDS011;150;52.352;14.058;2022-07-03T15:48:23;5.95;;;5.45;;
325;SDS011;150;52.352;14.058;2022-07-03T15:50:57;2.70;;;2.50;;
325;SDS011;150;52.352;14.058;2022-07-03T15:53:31;2.45;;;2.10;;
325;SDS011;150;52.352;14.058;2022-07-03T15:56:05;2.90;;;1.90;;
325;SDS011;150;52.352;14.058;2022-07-03T15:58:34;3.80;;;1.98;;